createdAt,value
2022-09-30T00:01:59.859Z,79.88
2022-09-30T00:04:29.107Z,80.47
2022-09-30T00:06:58.493Z,80.02
2022-09-30T00:09:27.612Z,79.58
2022-09-30T00:11:56.761Z,79.09
2022-09-30T00:14:26.351Z,79.29
2022-09-30T00:16:55.436Z,79.79
2022-09-30T00:19:25.898Z,80.04
2022-09-30T00:21:55.320Z,79.66
2022-09-30T00:24:24.553Z,79.05
2022-09-30T00:26:53.668Z,79.07
2022-09-30T00:29:22.848Z,78.43
2022-09-30T00:31:51.941Z,79.88
2022-09-30T00:34:21.261Z,79.41
2022-09-30T00:36:53.456Z,79.25
2022-09-30T00:39:24.267Z,78.98
2022-09-30T00:41:56.601Z,78.87
2022-09-30T00:44:54.000Z,79.41
2022-09-30T00:47:37.208Z,80.05
2022-09-30T00:50:26.535Z,78.19
2022-09-30T00:53:03.105Z,78.80
2022-09-30T00:55:39.317Z,78.03
2022-09-30T00:58:13.746Z,78.19
2022-09-30T01:00:43.454Z,78.59
2022-09-30T01:03:13.206Z,78.23
2022-09-30T01:05:42.688Z,78.69
2022-09-30T01:08:13.758Z,79.23
2022-09-30T01:10:43.251Z,79.51
2022-09-30T01:13:15.104Z,78.15
2022-09-30T01:15:59.811Z,78.62
2022-09-30T01:18:42.990Z,79.20
2022-09-30T01:21:36.260Z,78.72
2022-09-30T01:24:47.798Z,78.52
2022-09-30T01:27:49.993Z,78.28
2022-09-30T01:30:22.256Z,77.75
2022-09-30T01:33:21.796Z,78.27
2022-09-30T01:36:16.744Z,78.31
2022-09-30T01:38:55.318Z,79.22
2022-09-30T01:41:28.956Z,78.40
2022-09-30T01:44:05.807Z,80.28
2022-09-30T01:46:38.695Z,78.40
2022-09-30T01:49:18.523Z,78.56
2022-09-30T01:51:56.047Z,78.72
2022-09-30T01:54:32.043Z,80.20
2022-09-30T01:57:07.493Z,78.72
2022-09-30T01:59:42.669Z,78.84
2022-09-30T02:02:18.315Z,78.89
2022-09-30T02:04:53.528Z,78.25
2022-09-30T02:07:27.908Z,78.23
2022-09-30T02:10:01.550Z,78.20
2022-09-30T02:12:38.867Z,77.90
2022-09-30T02:15:12.800Z,79.52
2022-09-30T02:17:49.028Z,77.98
2022-09-30T02:20:24.317Z,78.54
2022-09-30T02:23:01.621Z,80.25
2022-09-30T02:25:36.372Z,78.51
2022-09-30T02:28:09.452Z,78.79
2022-09-30T02:35:54.401Z,79.50
2022-09-30T02:38:28.080Z,79.12
2022-09-30T02:41:02.416Z,78.42
2022-09-30T02:43:32.719Z,78.12
2022-09-30T02:46:09.365Z,79.22
2022-09-30T02:48:45.436Z,78.48
2022-09-30T02:51:21.024Z,78.11
2022-09-30T02:53:58.276Z,79.13
2022-09-30T02:56:38.807Z,80.02
2022-09-30T02:59:08.436Z,81.62
2022-09-30T03:01:41.982Z,80.29
2022-09-30T03:04:15.405Z,80.37
2022-09-30T03:06:46.121Z,81.62
2022-09-30T03:09:15.761Z,80.75
2022-09-30T03:11:45.029Z,79.78
2022-09-30T03:14:35.113Z,79.69
2022-09-30T03:17:39.040Z,79.72
2022-09-30T03:20:24.636Z,80.03
2022-09-30T03:23:19.535Z,79.37
2022-09-30T03:25:58.258Z,79.71
2022-09-30T03:28:32.133Z,79.31
2022-09-30T03:31:10.845Z,79.34
2022-09-30T03:33:50.495Z,79.36
2022-09-30T03:36:28.044Z,80.04
2022-09-30T03:39:04.940Z,81.91
2022-09-30T03:41:40.722Z,80.93
2022-09-30T03:44:16.788Z,81.52
2022-09-30T03:46:50.499Z,81.11
2022-09-30T03:49:25.354Z,81.41
2022-09-30T03:51:58.652Z,80.50
2022-09-30T03:54:29.768Z,79.74
2022-09-30T03:57:03.619Z,79.56
2022-09-30T03:59:33.183Z,79.55
2022-09-30T04:02:03.797Z,78.70
2022-09-30T04:04:33.580Z,79.49
2022-09-30T04:07:02.607Z,79.96
2022-09-30T04:09:33.177Z,78.79
2022-09-30T04:12:02.894Z,79.80
2022-09-30T04:14:32.138Z,81.13
2022-09-30T04:17:01.302Z,81.39
2022-09-30T04:19:30.853Z,81.67
2022-09-30T04:22:00.516Z,80.62
2022-09-30T04:24:29.506Z,80.32
2022-09-30T04:27:00.384Z,80.72
2022-09-30T04:29:29.661Z,80.25
2022-09-30T04:31:59.246Z,81.04
2022-09-30T04:34:28.473Z,80.15
2022-09-30T04:36:57.559Z,79.27
2022-09-30T04:39:26.898Z,79.87
2022-09-30T04:41:56.189Z,79.63
2022-09-30T04:44:26.650Z,80.04
2022-09-30T04:46:56.072Z,79.97
2022-09-30T04:49:25.377Z,80.12
2022-09-30T04:51:54.549Z,80.73
2022-09-30T04:54:24.370Z,80.49
2022-09-30T04:56:53.456Z,80.32
2022-09-30T04:59:22.623Z,80.50
2022-09-30T05:01:53.394Z,81.72
2022-09-30T05:04:22.499Z,80.56
2022-09-30T05:06:51.753Z,80.16
2022-09-30T05:09:21.235Z,80.53
2022-09-30T05:11:50.706Z,80.20
2022-09-30T05:14:20.030Z,80.61
2022-09-30T05:16:49.445Z,79.79
2022-09-30T05:19:20.052Z,79.43
2022-09-30T05:21:49.638Z,79.77
2022-09-30T05:24:19.055Z,80.44
2022-09-30T05:26:48.178Z,79.80
2022-09-30T05:29:17.144Z,80.11
2022-09-30T05:31:46.473Z,79.48
2022-09-30T05:34:16.904Z,79.72
2022-09-30T05:36:48.423Z,80.03
2022-09-30T05:39:17.903Z,80.41
2022-09-30T05:41:47.732Z,80.29
2022-09-30T05:44:16.754Z,81.00
2022-09-30T05:46:46.264Z,80.52
2022-09-30T05:49:15.625Z,80.75
2022-09-30T05:51:46.153Z,81.09
2022-09-30T05:54:15.571Z,81.30
2022-09-30T05:56:44.690Z,80.87
2022-09-30T05:59:13.822Z,80.41
2022-09-30T06:01:43.084Z,80.60
2022-09-30T06:04:12.247Z,80.20
2022-09-30T06:06:41.830Z,80.52
2022-09-30T06:09:12.408Z,80.47
2022-09-30T06:11:42.962Z,79.94
2022-09-30T06:14:12.346Z,79.82
2022-09-30T06:16:42.015Z,79.35
2022-09-30T06:19:11.250Z,80.21
2022-09-30T06:21:40.464Z,79.59
2022-09-30T06:24:13.244Z,79.59
2022-09-30T06:26:44.978Z,79.28
2022-09-30T06:29:14.703Z,79.00
2022-09-30T06:31:44.070Z,79.76
2022-09-30T06:34:13.800Z,79.80
2022-09-30T06:36:42.812Z,79.44
2022-09-30T06:39:13.801Z,79.23
2022-09-30T06:41:44.728Z,79.28
2022-09-30T06:44:26.856Z,78.31
2022-09-30T06:46:56.620Z,78.78
2022-09-30T06:49:28.761Z,77.81
2022-09-30T06:52:01.153Z,76.28
2022-09-30T06:54:34.636Z,76.68
2022-09-30T06:57:05.384Z,76.00
2022-09-30T06:59:34.794Z,75.55
2022-09-30T07:02:04.138Z,75.45
2022-09-30T07:04:33.466Z,75.63
2022-09-30T07:07:03.200Z,75.41
2022-09-30T07:09:32.599Z,75.05
2022-09-30T07:12:01.876Z,74.59
2022-09-30T07:14:32.807Z,74.54
2022-09-30T07:17:04.370Z,74.33
2022-09-30T07:19:34.753Z,74.74
2022-09-30T07:22:18.336Z,74.27
2022-09-30T07:24:47.510Z,74.38
2022-09-30T07:27:16.952Z,73.91
2022-09-30T07:30:08.082Z,73.69
2022-09-30T07:32:38.579Z,73.40
2022-09-30T07:35:10.433Z,73.00
2022-09-30T07:37:40.818Z,71.98
2022-09-30T07:40:11.383Z,72.00
2022-09-30T07:42:46.103Z,72.62
2022-09-30T07:45:19.582Z,71.86
2022-09-30T07:47:53.535Z,71.33
2022-09-30T07:50:23.786Z,70.01
2022-09-30T07:52:56.491Z,69.18
2022-09-30T07:55:26.111Z,70.55
2022-09-30T07:57:55.340Z,69.67
2022-09-30T08:00:42.908Z,69.22
2022-09-30T08:03:13.142Z,69.01
2022-09-30T08:05:44.771Z,68.47
2022-09-30T08:08:14.634Z,67.66
2022-09-30T08:10:44.013Z,67.65
2022-09-30T08:13:14.914Z,66.56
2022-09-30T08:15:46.019Z,66.74
2022-09-30T08:18:15.460Z,67.12
2022-09-30T08:20:44.696Z,66.71
2022-09-30T08:23:14.157Z,65.00
2022-09-30T08:25:43.345Z,64.58
2022-09-30T08:28:12.753Z,63.72
2022-09-30T08:30:42.539Z,59.02
2022-09-30T08:33:14.177Z,58.69
2022-09-30T08:35:43.492Z,58.60
2022-09-30T08:38:12.767Z,57.70
2022-09-30T08:40:59.284Z,57.36
2022-09-30T08:43:40.440Z,58.52
2022-09-30T08:46:18.794Z,56.29
2022-09-30T08:49:03.508Z,56.63
2022-09-30T08:51:37.838Z,55.21
2022-09-30T08:54:12.983Z,56.74
2022-09-30T08:56:44.302Z,55.66
2022-09-30T08:59:23.344Z,54.52
2022-09-30T09:01:59.933Z,54.57
2022-09-30T09:04:30.777Z,53.73
2022-09-30T09:07:08.082Z,54.17
2022-09-30T09:09:53.633Z,53.93
2022-09-30T09:12:33.279Z,52.52
2022-09-30T09:15:31.048Z,53.19
2022-09-30T09:18:38.437Z,51.60
2022-09-30T09:21:30.051Z,51.16
2022-09-30T09:24:02.678Z,49.64
2022-09-30T09:26:38.325Z,47.92
2022-09-30T09:29:24.505Z,47.97
2022-09-30T09:31:54.949Z,46.72
2022-09-30T09:34:28.306Z,47.21
2022-09-30T09:37:12.659Z,45.68
2022-09-30T09:40:05.008Z,47.52
2022-09-30T09:42:54.507Z,46.19
2022-09-30T09:45:32.476Z,47.01
2022-09-30T09:48:02.098Z,46.67
2022-09-30T09:50:42.522Z,46.03
2022-09-30T09:53:45.361Z,45.46
2022-09-30T09:56:22.187Z,42.93
2022-09-30T09:59:10.536Z,40.37
2022-09-30T10:01:42.154Z,40.80
2022-09-30T10:04:16.588Z,39.21
2022-09-30T10:06:55.843Z,42.64
2022-09-30T10:09:28.481Z,43.98
2022-09-30T10:12:30.069Z,43.58
2022-09-30T10:15:14.815Z,38.74
2022-09-30T10:17:44.645Z,34.42
2022-09-30T10:20:29.347Z,33.20
2022-09-30T10:23:11.319Z,30.84
2022-09-30T10:25:40.646Z,25.60
2022-09-30T10:28:26.149Z,23.71
2022-09-30T10:30:59.169Z,24.23
2022-09-30T10:33:32.966Z,27.49
2022-09-30T10:36:15.473Z,27.25
2022-09-30T10:38:53.935Z,31.82
2022-09-30T10:41:26.446Z,36.32
2022-09-30T10:44:00.330Z,36.81
2022-09-30T10:46:33.104Z,35.60
2022-09-30T10:49:08.689Z,32.76
2022-09-30T10:51:38.147Z,29.03
2022-09-30T10:54:08.378Z,26.39
2022-09-30T10:56:44.235Z,30.55
2022-09-30T10:59:31.535Z,32.13
2022-09-30T11:05:04.257Z,33.14
2022-09-30T11:07:41.634Z,33.53
2022-09-30T11:10:32.802Z,30.09
2022-09-30T11:13:08.885Z,27.35
2022-09-30T11:15:46.603Z,25.95
2022-09-30T11:18:22.577Z,31.96
2022-09-30T11:20:59.337Z,31.98
2022-09-30T11:23:33.944Z,31.15
2022-09-30T11:26:10.498Z,30.57
2022-09-30T11:29:07.254Z,33.17
2022-09-30T11:31:44.196Z,35.52
2022-09-30T11:34:32.723Z,37.62
2022-09-30T11:37:08.250Z,36.48
2022-09-30T11:40:05.045Z,32.13
2022-09-30T11:42:47.244Z,33.53
2022-09-30T11:45:29.217Z,32.74
2022-09-30T11:48:18.495Z,33.99
2022-09-30T11:51:02.034Z,35.96
2022-09-30T11:53:43.139Z,34.85
2022-09-30T11:56:26.512Z,28.13
2022-09-30T11:59:01.596Z,29.72
2022-09-30T12:01:34.865Z,26.30
2022-09-30T12:04:10.976Z,25.62
2022-09-30T12:06:45.937Z,26.20
2022-09-30T12:09:22.988Z,22.52
2022-09-30T12:11:58.047Z,30.10
2022-09-30T12:14:30.782Z,24.71
2022-09-30T12:17:04.280Z,32.96
2022-09-30T12:19:41.308Z,33.90
2022-09-30T12:22:16.916Z,33.28
2022-09-30T12:24:47.288Z,26.65
2022-09-30T12:27:22.696Z,24.18
2022-09-30T12:30:18.006Z,23.08
2022-09-30T12:33:20.993Z,21.96
2022-09-30T12:36:17.833Z,22.37
2022-09-30T12:39:22.181Z,20.91
2022-09-30T12:42:07.581Z,23.19
2022-09-30T12:45:00.647Z,20.65
2022-09-30T12:47:45.910Z,20.98
2022-09-30T12:50:19.093Z,20.60
2022-09-30T12:52:51.029Z,23.54
2022-09-30T12:55:31.233Z,23.01
2022-09-30T12:58:02.570Z,20.50
2022-09-30T13:00:34.982Z,21.56
2022-09-30T13:03:09.153Z,21.36
2022-09-30T13:06:06.491Z,21.32
2022-09-30T13:08:45.911Z,20.17
2022-09-30T13:11:37.426Z,21.37
2022-09-30T13:14:26.605Z,21.71
2022-09-30T13:17:25.563Z,20.06
2022-09-30T13:19:57.510Z,18.58
2022-09-30T13:22:58.169Z,18.71
2022-09-30T13:25:28.899Z,19.23
2022-09-30T13:28:30.789Z,19.17
2022-09-30T13:31:19.299Z,17.12
2022-09-30T13:34:06.605Z,20.64
2022-09-30T13:36:42.984Z,19.64
2022-09-30T13:39:26.715Z,21.33
2022-09-30T13:42:08.490Z,21.47
2022-09-30T13:44:45.918Z,22.01
2022-09-30T13:47:27.371Z,22.44
2022-09-30T13:50:04.030Z,21.38
2022-09-30T13:52:38.243Z,23.72
2022-09-30T13:55:16.233Z,21.40
2022-09-30T13:57:57.503Z,25.86
2022-09-30T14:00:48.620Z,29.86
2022-09-30T14:03:41.675Z,29.39
2022-09-30T14:06:23.156Z,31.20
2022-09-30T14:09:08.758Z,26.54
2022-09-30T14:12:14.824Z,28.04
2022-09-30T14:15:11.658Z,31.46
2022-09-30T14:17:55.896Z,32.81
2022-09-30T14:20:40.490Z,30.65
2022-09-30T14:23:15.695Z,30.11
2022-09-30T14:25:52.533Z,29.38
2022-09-30T14:28:32.716Z,25.91
2022-09-30T14:31:13.295Z,25.10
2022-09-30T14:33:47.842Z,23.23
2022-09-30T14:36:20.474Z,23.15
2022-09-30T14:39:02.377Z,24.44
2022-09-30T14:41:41.300Z,24.55
2022-09-30T14:44:17.968Z,26.27
2022-09-30T14:46:51.274Z,26.29
2022-09-30T14:49:30.428Z,28.28
2022-09-30T14:52:03.254Z,29.01
2022-09-30T14:54:34.338Z,28.84
2022-09-30T14:57:16.765Z,28.32
2022-09-30T14:59:45.759Z,29.75
2022-09-30T15:02:20.419Z,33.18
2022-09-30T15:04:53.993Z,33.64
2022-09-30T15:07:24.785Z,32.82
2022-09-30T15:09:53.865Z,33.28
2022-09-30T15:12:25.472Z,32.91
2022-09-30T15:14:57.505Z,32.12
2022-09-30T15:17:30.379Z,32.02
2022-09-30T15:20:00.914Z,31.23
2022-09-30T15:22:31.702Z,32.40
2022-09-30T15:25:01.612Z,36.60
2022-09-30T15:27:33.232Z,37.59
2022-09-30T15:30:05.452Z,37.64
2022-09-30T15:32:38.558Z,39.07
2022-09-30T15:35:13.575Z,41.22
2022-09-30T15:37:43.755Z,42.44
2022-09-30T15:40:34.493Z,44.07
2022-09-30T15:43:08.244Z,46.09
2022-09-30T15:45:39.589Z,46.49
2022-09-30T15:48:36.232Z,47.80
2022-09-30T15:51:26.199Z,48.26
2022-09-30T15:54:00.748Z,50.79
2022-09-30T15:56:36.278Z,50.29
2022-09-30T15:59:07.947Z,50.13
2022-09-30T16:01:40.469Z,50.79
2022-09-30T16:04:15.614Z,50.88
2022-09-30T16:06:48.459Z,52.46
2022-09-30T16:09:24.148Z,51.74
2022-09-30T16:12:05.422Z,52.49
2022-09-30T16:14:43.877Z,53.20
2022-09-30T16:17:20.645Z,53.62
2022-09-30T16:19:56.084Z,55.09
2022-09-30T16:22:51.880Z,56.97
2022-09-30T16:25:24.459Z,55.96
2022-09-30T16:27:59.378Z,56.57
2022-09-30T16:30:30.129Z,56.02
2022-09-30T16:33:04.397Z,56.70
2022-09-30T16:35:35.510Z,57.73
2022-09-30T16:38:07.201Z,59.20
2022-09-30T16:40:38.257Z,60.15
2022-09-30T16:43:11.845Z,59.20
2022-09-30T16:45:42.721Z,61.82
2022-09-30T16:48:16.905Z,61.58
2022-09-30T16:50:51.731Z,61.76
2022-09-30T16:53:22.139Z,61.18
2022-09-30T16:55:52.464Z,61.11
2022-09-30T16:58:22.039Z,61.14
2022-09-30T17:00:51.915Z,62.91
2022-09-30T17:03:23.357Z,62.23
2022-09-30T17:05:54.331Z,61.88
2022-09-30T17:08:24.938Z,62.55
2022-09-30T17:10:58.069Z,62.74
2022-09-30T17:13:30.192Z,64.73
2022-09-30T17:16:02.102Z,64.43
2022-09-30T17:18:31.516Z,64.27
2022-09-30T17:21:02.684Z,65.11
2022-09-30T17:23:31.872Z,63.04
2022-09-30T17:26:05.196Z,65.59
2022-09-30T17:28:35.182Z,64.83
2022-09-30T17:31:05.173Z,65.81
2022-09-30T17:33:36.174Z,66.75
2022-09-30T17:36:11.961Z,66.64
2022-09-30T17:38:41.679Z,66.59
2022-09-30T17:41:31.974Z,66.24
2022-09-30T17:44:02.720Z,66.91
2022-09-30T17:46:43.159Z,67.68
2022-09-30T17:49:13.049Z,68.47
2022-09-30T17:51:44.410Z,68.54
2022-09-30T17:54:13.472Z,68.61
2022-09-30T17:56:43.918Z,68.59
2022-09-30T17:59:14.936Z,68.56
2022-09-30T18:01:44.463Z,69.38
2022-09-30T18:04:13.809Z,70.09
2022-09-30T18:06:46.510Z,69.25
2022-09-30T18:09:15.954Z,68.68
2022-09-30T18:11:45.277Z,68.51
2022-09-30T18:14:14.894Z,69.24
2022-09-30T18:16:45.206Z,69.82
2022-09-30T18:21:50.482Z,69.22
2022-09-30T18:24:40.182Z,69.92
2022-09-30T18:27:09.709Z,69.23
2022-09-30T18:29:40.526Z,69.70
2022-09-30T18:32:10.206Z,70.94
2022-09-30T18:34:39.510Z,71.52
2022-09-30T18:37:10.471Z,71.39
2022-09-30T18:39:40.151Z,71.30
2022-09-30T18:42:10.161Z,71.59
2022-09-30T18:44:39.229Z,70.18
2022-09-30T18:47:08.684Z,69.72
2022-09-30T18:49:38.267Z,69.90
2022-09-30T18:52:11.207Z,69.10
2022-09-30T18:54:41.947Z,69.77
2022-09-30T18:57:11.206Z,71.03
2022-09-30T18:59:40.271Z,72.00
2022-09-30T19:02:11.770Z,72.32
2022-09-30T19:04:40.898Z,72.67
2022-09-30T19:07:10.105Z,71.72
2022-09-30T19:09:41.280Z,71.00
2022-09-30T19:12:13.532Z,70.01
2022-09-30T19:14:44.665Z,70.83
2022-09-30T19:17:15.300Z,72.13
2022-09-30T19:19:46.819Z,71.69
2022-09-30T19:22:16.191Z,71.32
2022-09-30T19:24:47.764Z,70.58
2022-09-30T19:27:17.478Z,71.63
2022-09-30T19:29:49.055Z,71.08
2022-09-30T19:32:19.054Z,70.70
2022-09-30T19:35:00.453Z,71.68
2022-09-30T19:37:35.894Z,70.87
2022-09-30T19:40:19.942Z,72.28
2022-09-30T19:42:52.576Z,71.40
2022-09-30T19:45:25.698Z,72.29
2022-09-30T19:47:59.734Z,72.18
2022-09-30T19:50:30.035Z,72.47
2022-09-30T19:53:01.954Z,72.12
2022-09-30T19:55:44.997Z,73.04
2022-09-30T19:58:18.773Z,72.67
2022-09-30T20:00:56.443Z,72.50
2022-09-30T20:03:26.713Z,72.27
2022-09-30T20:06:01.186Z,72.19
2022-09-30T20:08:31.320Z,72.68
2022-09-30T20:11:06.410Z,73.11
2022-09-30T20:13:38.509Z,73.50
2022-09-30T20:16:10.295Z,73.77
2022-09-30T20:18:41.221Z,73.76
2022-09-30T20:21:12.036Z,74.38
2022-09-30T20:23:42.194Z,74.39
2022-09-30T20:26:15.516Z,73.78
2022-09-30T20:28:47.004Z,73.98
2022-09-30T20:31:17.275Z,73.81
2022-09-30T20:33:47.083Z,71.46
2022-09-30T20:36:16.544Z,71.96
2022-09-30T20:38:50.305Z,72.59
2022-09-30T20:41:21.192Z,71.33
2022-09-30T20:43:53.394Z,70.75
2022-09-30T20:46:25.967Z,69.38
2022-09-30T20:48:55.341Z,69.01
2022-09-30T20:51:24.929Z,69.06
2022-09-30T20:53:55.365Z,68.83
2022-09-30T20:56:28.564Z,68.72
2022-09-30T20:59:02.480Z,69.29
2022-09-30T21:01:31.924Z,70.41
2022-09-30T21:04:01.472Z,70.65
2022-09-30T21:06:31.498Z,70.51
2022-09-30T21:09:03.760Z,70.77
2022-09-30T21:11:35.300Z,70.83
2022-09-30T21:14:05.963Z,70.63
2022-09-30T21:16:35.313Z,70.57
2022-09-30T21:19:04.645Z,70.92
2022-09-30T21:21:34.182Z,70.43
2022-09-30T21:24:04.082Z,70.23
2022-09-30T21:26:36.675Z,70.09
2022-09-30T21:29:06.259Z,70.13
2022-09-30T21:31:37.935Z,70.73
2022-09-30T21:34:07.449Z,70.72
2022-09-30T21:36:36.530Z,71.54
2022-09-30T21:39:05.807Z,71.19
2022-09-30T21:41:36.774Z,71.84
2022-09-30T21:44:06.042Z,72.03
2022-09-30T21:46:35.786Z,73.57
2022-09-30T21:49:07.422Z,73.98
2022-09-30T21:51:36.706Z,73.42
2022-09-30T21:54:06.034Z,71.97
2022-09-30T21:56:37.077Z,71.97
2022-09-30T21:59:06.562Z,71.68
2022-09-30T22:01:37.537Z,71.61
2022-09-30T22:04:07.201Z,71.24
2022-09-30T22:06:36.567Z,71.33
2022-09-30T22:09:06.127Z,72.17
2022-09-30T22:11:37.177Z,72.54
2022-09-30T22:14:06.769Z,73.10
2022-09-30T22:16:36.407Z,72.44
2022-09-30T22:19:09.010Z,72.29
2022-09-30T22:21:39.188Z,71.10
2022-09-30T22:24:10.410Z,71.07
2022-09-30T22:26:42.586Z,71.75
2022-09-30T22:29:12.917Z,72.14
2022-09-30T22:31:42.067Z,72.66
2022-09-30T22:34:32.291Z,73.08
2022-09-30T22:37:19.101Z,73.85
2022-09-30T22:39:48.464Z,75.38
2022-09-30T22:42:19.374Z,75.01
2022-09-30T22:44:49.772Z,74.64
2022-09-30T22:47:19.214Z,75.36
2022-09-30T22:49:48.390Z,75.90
2022-09-30T22:52:17.335Z,76.02
2022-09-30T22:54:46.552Z,76.18
2022-09-30T22:57:16.308Z,76.34
2022-09-30T22:59:47.637Z,76.46
2022-09-30T23:02:17.256Z,76.67
2022-09-30T23:04:47.032Z,76.58
2022-09-30T23:07:16.192Z,76.51
2022-09-30T23:09:45.537Z,76.47
2022-09-30T23:12:14.874Z,76.65
2022-09-30T23:14:45.493Z,76.87
2022-09-30T23:17:14.732Z,76.44
2022-09-30T23:19:43.892Z,76.40
2022-09-30T23:22:13.517Z,76.35
2022-09-30T23:24:42.892Z,77.68
2022-09-30T23:27:12.057Z,77.65
2022-09-30T23:29:41.128Z,76.92
2022-09-30T23:32:11.855Z,77.69
2022-09-30T23:34:41.110Z,77.03
2022-09-30T23:37:10.257Z,77.85
2022-09-30T23:39:40.874Z,77.41
2022-09-30T23:42:10.010Z,78.03
2022-09-30T23:44:39.368Z,78.27
2022-09-30T23:47:19.197Z,79.09
2022-09-30T23:49:48.721Z,78.96
2022-09-30T23:52:18.084Z,78.84
2022-09-30T23:54:47.487Z,78.96
2022-09-30T23:57:16.560Z,79.75
2022-09-30T23:59:45.876Z,78.69
